sensor_id;sensor_type;location;lat;lon;timestamp;P1;durP1;ratioP1;P2;durP2;ratioP2
34565;SDS011;20803;42.676;26.348;2024-01-15T00:00:00;10.83;;;6.50;;
34565;SDS011;20803;42.676;26.348;2024-01-15T00:02:25;12.17;;;6.70;;
34565;SDS011;20803;42.676;26.348;2024-01-15T00:04:51;12.37;;;7.17;;
34565;SDS011;20803;42.676;26.348;2024-01-15T00:07:16;15.20;;;8.27;;
34565;SDS011;20803;42.676;26.348;2024-01-15T00:09:42;13.50;;;7.87;;
34565;SDS011;20803;42.676;26.348;2024-01-15T00:12:07;13.60;;;8.27;;
34565;SDS011;20803;42.676;26.348;2024-01-15T00:14:33;14.60;;;8.70;;
34565;SDS011;20803;42.676;26.348;2024-01-15T00:16:58;16.40;;;8.63;;
34565;SDS011;20803;42.676;26.348;2024-01-15T00:19:24;12.60;;;8.23;;
34565;SDS011;20803;42.676;26.348;2024-01-15T00:21:49;12.33;;;7.73;;
34565;SDS011;20803;42.676;26.348;2024-01-15T00:24:15;16.90;;;8.63;;
34565;SDS011;20803;42.676;26.348;2024-01-15T00:26:41;22.77;;;9.33;;
34565;SDS011;20803;42.676;26.348;2024-01-15T00:29:07;15.40;;;8.20;;
34565;SDS011;20803;42.676;26.348;2024-01-15T00:31:33;14.10;;;8.40;;
34565;SDS011;20803;42.676;26.348;2024-01-15T00:33:58;17.57;;;9.37;;
34565;SDS011;20803;42.676;26.348;2024-01-15T00:36:24;16.93;;;10.20;;
34565;SDS011;20803;42.676;26.348;2024-01-15T00:38:49;20.27;;;10.83;;
34565;SDS011;20803;42.676;26.348;2024-01-15T00:41:15;19.37;;;10.90;;
34565;SDS011;20803;42.676;26.348;2024-01-15T00:43:40;20.07;;;11.33;;
34565;SDS011;20803;42.676;26.348;2024-01-15T00:46:06;23.83;;;12.13;;
34565;SDS011;20803;42.676;26.348;2024-01-15T00:48:32;22.57;;;12.57;;
34565;SDS011;20803;42.676;26.348;2024-01-15T00:50:57;25.53;;;13.50;;
34565;SDS011;20803;42.676;26.348;2024-01-15T00:53:23;21.07;;;12.77;;
34565;SDS011;20803;42.676;26.348;2024-01-15T00:55:48;21.73;;;12.67;;
34565;SDS011;20803;42.676;26.348;2024-01-15T00:58:14;19.80;;;11.73;;
34565;SDS011;20803;42.676;26.348;2024-01-15T01:00:39;19.03;;;11.60;;
34565;SDS011;20803;42.676;26.348;2024-01-15T01:03:06;17.37;;;10.30;;
34565;SDS011;20803;42.676;26.348;2024-01-15T01:05:31;16.13;;;10.57;;
34565;SDS011;20803;42.676;26.348;2024-01-15T01:07:58;17.27;;;9.43;;
34565;SDS011;20803;42.676;26.348;2024-01-15T01:10:23;18.03;;;11.07;;
34565;SDS011;20803;42.676;26.348;2024-01-15T01:12:49;19.40;;;10.97;;
34565;SDS011;20803;42.676;26.348;2024-01-15T01:15:14;23.00;;;12.10;;
34565;SDS011;20803;42.676;26.348;2024-01-15T01:17:40;20.83;;;12.63;;
34565;SDS011;20803;42.676;26.348;2024-01-15T01:20:05;20.20;;;12.07;;
34565;SDS011;20803;42.676;26.348;2024-01-15T01:22:33;26.87;;;12.50;;
34565;SDS011;20803;42.676;26.348;2024-01-15T01:24:59;20.50;;;12.50;;
34565;SDS011;20803;42.676;26.348;2024-01-15T01:27:24;20.10;;;12.23;;
34565;SDS011;20803;42.676;26.348;2024-01-15T01:29:50;16.97;;;10.50;;
34565;SDS011;20803;42.676;26.348;2024-01-15T01:32:15;20.43;;;10.30;;
34565;SDS011;20803;42.676;26.348;2024-01-15T01:34:41;14.70;;;9.67;;
34565;SDS011;20803;42.676;26.348;2024-01-15T01:37:10;12.03;;;8.20;;
34565;SDS011;20803;42.676;26.348;2024-01-15T01:39:38;13.53;;;8.70;;
34565;SDS011;20803;42.676;26.348;2024-01-15T01:42:04;13.53;;;7.93;;
34565;SDS011;20803;42.676;26.348;2024-01-15T01:44:30;13.43;;;7.20;;
34565;SDS011;20803;42.676;26.348;2024-01-15T01:46:56;9.90;;;5.57;;
34565;SDS011;20803;42.676;26.348;2024-01-15T01:49:23;9.50;;;5.60;;
34565;SDS011;20803;42.676;26.348;2024-01-15T01:51:50;8.20;;;5.40;;
34565;SDS011;20803;42.676;26.348;2024-01-15T01:54:16;7.63;;;5.50;;
34565;SDS011;20803;42.676;26.348;2024-01-15T01:56:43;9.50;;;6.10;;
34565;SDS011;20803;42.676;26.348;2024-01-15T01:59:09;9.03;;;5.23;;
34565;SDS011;20803;42.676;26.348;2024-01-15T02:01:36;8.00;;;5.37;;
34565;SDS011;20803;42.676;26.348;2024-01-15T02:04:02;11.00;;;6.03;;
34565;SDS011;20803;42.676;26.348;2024-01-15T02:06:29;8.83;;;5.60;;
34565;SDS011;20803;42.676;26.348;2024-01-15T02:08:54;9.87;;;6.10;;
34565;SDS011;20803;42.676;26.348;2024-01-15T02:11:20;9.80;;;6.43;;
34565;SDS011;20803;42.676;26.348;2024-01-15T02:13:46;13.37;;;7.67;;
34565;SDS011;20803;42.676;26.348;2024-01-15T02:16:12;12.50;;;7.13;;
34565;SDS011;20803;42.676;26.348;2024-01-15T02:18:41;11.63;;;7.80;;
34565;SDS011;20803;42.676;26.348;2024-01-15T02:21:08;12.77;;;7.83;;
34565;SDS011;20803;42.676;26.348;2024-01-15T02:23:34;14.30;;;7.77;;
34565;SDS011;20803;42.676;26.348;2024-01-15T02:25:59;12.33;;;7.60;;
34565;SDS011;20803;42.676;26.348;2024-01-15T02:28:25;12.93;;;8.03;;
34565;SDS011;20803;42.676;26.348;2024-01-15T02:30:50;12.33;;;7.17;;
34565;SDS011;20803;42.676;26.348;2024-01-15T02:33:16;12.70;;;7.47;;
34565;SDS011;20803;42.676;26.348;2024-01-15T02:35:41;15.73;;;9.27;;
34565;SDS011;20803;42.676;26.348;2024-01-15T02:38:07;15.30;;;8.87;;
34565;SDS011;20803;42.676;26.348;2024-01-15T02:40:33;14.13;;;8.40;;
34565;SDS011;20803;42.676;26.348;2024-01-15T02:43:00;12.73;;;7.40;;
34565;SDS011;20803;42.676;26.348;2024-01-15T02:45:26;12.23;;;6.83;;
34565;SDS011;20803;42.676;26.348;2024-01-15T02:47:52;9.73;;;6.47;;
34565;SDS011;20803;42.676;26.348;2024-01-15T02:50:17;12.43;;;7.37;;
34565;SDS011;20803;42.676;26.348;2024-01-15T02:52:43;13.67;;;6.83;;
34565;SDS011;20803;42.676;26.348;2024-01-15T02:55:09;10.10;;;6.70;;
34565;SDS011;20803;42.676;26.348;2024-01-15T02:57:34;13.93;;;7.27;;
34565;SDS011;20803;42.676;26.348;2024-01-15T03:00:00;11.23;;;6.80;;
34565;SDS011;20803;42.676;26.348;2024-01-15T03:02:26;11.43;;;7.07;;
34565;SDS011;20803;42.676;26.348;2024-01-15T03:04:51;10.00;;;6.37;;
34565;SDS011;20803;42.676;26.348;2024-01-15T03:07:17;13.27;;;7.57;;
34565;SDS011;20803;42.676;26.348;2024-01-15T03:09:43;13.50;;;8.13;;
34565;SDS011;20803;42.676;26.348;2024-01-15T03:12:09;12.67;;;7.70;;
34565;SDS011;20803;42.676;26.348;2024-01-15T03:14:35;13.07;;;7.23;;
34565;SDS011;20803;42.676;26.348;2024-01-15T03:17:00;9.93;;;6.00;;
34565;SDS011;20803;42.676;26.348;2024-01-15T03:19:26;13.40;;;6.80;;
34565;SDS011;20803;42.676;26.348;2024-01-15T03:21:52;9.73;;;5.87;;
34565;SDS011;20803;42.676;26.348;2024-01-15T03:24:18;10.77;;;6.47;;
34565;SDS011;20803;42.676;26.348;2024-01-15T03:26:43;8.60;;;6.10;;
34565;SDS011;20803;42.676;26.348;2024-01-15T03:29:09;8.03;;;5.83;;
34565;SDS011;20803;42.676;26.348;2024-01-15T03:31:34;8.77;;;5.70;;
34565;SDS011;20803;42.676;26.348;2024-01-15T03:34:00;9.27;;;6.13;;
34565;SDS011;20803;42.676;26.348;2024-01-15T03:36:25;10.33;;;7.53;;
34565;SDS011;20803;42.676;26.348;2024-01-15T03:38:51;14.17;;;8.67;;
34565;SDS011;20803;42.676;26.348;2024-01-15T03:41:16;13.73;;;9.13;;
34565;SDS011;20803;42.676;26.348;2024-01-15T03:43:42;15.67;;;9.97;;
34565;SDS011;20803;42.676;26.348;2024-01-15T03:46:07;15.93;;;10.13;;
34565;SDS011;20803;42.676;26.348;2024-01-15T03:48:33;14.47;;;10.07;;
34565;SDS011;20803;42.676;26.348;2024-01-15T03:50:58;15.63;;;8.63;;
34565;SDS011;20803;42.676;26.348;2024-01-15T03:53:24;11.77;;;7.90;;
34565;SDS011;20803;42.676;26.348;2024-01-15T03:55:49;13.30;;;7.70;;
34565;SDS011;20803;42.676;26.348;2024-01-15T03:58:15;12.83;;;7.60;;
34565;SDS011;20803;42.676;26.348;2024-01-15T04:00:41;13.90;;;7.50;;
34565;SDS011;20803;42.676;26.348;2024-01-15T04:03:07;11.47;;;6.80;;
34565;SDS011;20803;42.676;26.348;2024-01-15T04:05:33;10.37;;;6.47;;
34565;SDS011;20803;42.676;26.348;2024-01-15T04:07:59;11.80;;;7.13;;
34565;SDS011;20803;42.676;26.348;2024-01-15T04:10:24;10.83;;;7.23;;
34565;SDS011;20803;42.676;26.348;2024-01-15T04:12:50;16.93;;;8.70;;
34565;SDS011;20803;42.676;26.348;2024-01-15T04:15:15;27.23;;;12.33;;
34565;SDS011;20803;42.676;26.348;2024-01-15T04:17:41;31.77;;;12.60;;
34565;SDS011;20803;42.676;26.348;2024-01-15T04:20:07;25.63;;;11.10;;
34565;SDS011;20803;42.676;26.348;2024-01-15T04:22:33;20.63;;;10.40;;
34565;SDS011;20803;42.676;26.348;2024-01-15T04:25:00;14.50;;;8.03;;
34565;SDS011;20803;42.676;26.348;2024-01-15T04:27:25;11.90;;;6.80;;
34565;SDS011;20803;42.676;26.348;2024-01-15T04:29:51;9.13;;;5.90;;
34565;SDS011;20803;42.676;26.348;2024-01-15T04:32:16;9.23;;;5.43;;
34565;SDS011;20803;42.676;26.348;2024-01-15T04:34:42;13.60;;;6.20;;
34565;SDS011;20803;42.676;26.348;2024-01-15T04:37:07;17.90;;;7.53;;
34565;SDS011;20803;42.676;26.348;2024-01-15T04:39:33;12.37;;;7.60;;
34565;SDS011;20803;42.676;26.348;2024-01-15T04:41:58;14.80;;;7.47;;
34565;SDS011;20803;42.676;26.348;2024-01-15T04:44:24;12.70;;;8.23;;
34565;SDS011;20803;42.676;26.348;2024-01-15T04:46:49;19.40;;;8.90;;
34565;SDS011;20803;42.676;26.348;2024-01-15T04:49:15;12.73;;;8.00;;
34565;SDS011;20803;42.676;26.348;2024-01-15T04:51:40;13.93;;;7.20;;
34565;SDS011;20803;42.676;26.348;2024-01-15T04:54:06;15.30;;;8.17;;
34565;SDS011;20803;42.676;26.348;2024-01-15T04:56:31;15.07;;;8.87;;
34565;SDS011;20803;42.676;26.348;2024-01-15T04:58:57;14.97;;;8.60;;
34565;SDS011;20803;42.676;26.348;2024-01-15T05:01:22;12.73;;;8.07;;
34565;SDS011;20803;42.676;26.348;2024-01-15T05:03:48;12.60;;;7.67;;
34565;SDS011;20803;42.676;26.348;2024-01-15T05:06:14;18.57;;;10.43;;
34565;SDS011;20803;42.676;26.348;2024-01-15T05:08:40;29.37;;;18.37;;
34565;SDS011;20803;42.676;26.348;2024-01-15T05:11:06;19.30;;;11.47;;
34565;SDS011;20803;42.676;26.348;2024-01-15T05:13:31;19.50;;;12.20;;
34565;SDS011;20803;42.676;26.348;2024-01-15T05:15:57;22.87;;;12.10;;
34565;SDS011;20803;42.676;26.348;2024-01-15T05:18:22;21.63;;;13.37;;
34565;SDS011;20803;42.676;26.348;2024-01-15T05:20:48;21.30;;;13.47;;
34565;SDS011;20803;42.676;26.348;2024-01-15T05:23:13;27.57;;;13.60;;
34565;SDS011;20803;42.676;26.348;2024-01-15T05:25:39;25.43;;;14.30;;
34565;SDS011;20803;42.676;26.348;2024-01-15T05:28:05;27.73;;;13.83;;
34565;SDS011;20803;42.676;26.348;2024-01-15T05:30:31;23.97;;;13.73;;
34565;SDS011;20803;42.676;26.348;2024-01-15T05:32:56;24.43;;;12.90;;
34565;SDS011;20803;42.676;26.348;2024-01-15T05:35:22;25.23;;;12.97;;
34565;SDS011;20803;42.676;26.348;2024-01-15T05:37:48;25.23;;;14.43;;
34565;SDS011;20803;42.676;26.348;2024-01-15T05:40:14;28.20;;;14.00;;
34565;SDS011;20803;42.676;26.348;2024-01-15T05:42:40;21.93;;;12.93;;
34565;SDS011;20803;42.676;26.348;2024-01-15T05:45:06;20.57;;;13.23;;
34565;SDS011;20803;42.676;26.348;2024-01-15T05:47:32;22.70;;;13.43;;
34565;SDS011;20803;42.676;26.348;2024-01-15T05:49:58;21.27;;;12.33;;
34565;SDS011;20803;42.676;26.348;2024-01-15T05:52:23;23.40;;;13.53;;
34565;SDS011;20803;42.676;26.348;2024-01-15T05:54:49;26.40;;;13.70;;
34565;SDS011;20803;42.676;26.348;2024-01-15T05:57:15;22.17;;;12.57;;
34565;SDS011;20803;42.676;26.348;2024-01-15T05:59:40;21.67;;;12.63;;
34565;SDS011;20803;42.676;26.348;2024-01-15T06:02:06;24.77;;;13.30;;
34565;SDS011;20803;42.676;26.348;2024-01-15T06:04:32;21.73;;;12.00;;
34565;SDS011;20803;42.676;26.348;2024-01-15T06:06:57;18.43;;;11.10;;
34565;SDS011;20803;42.676;26.348;2024-01-15T06:09:23;19.90;;;13.13;;
34565;SDS011;20803;42.676;26.348;2024-01-15T06:11:48;24.20;;;13.00;;
34565;SDS011;20803;42.676;26.348;2024-01-15T06:14:14;25.37;;;14.23;;
34565;SDS011;20803;42.676;26.348;2024-01-15T06:16:39;30.30;;;14.60;;
34565;SDS011;20803;42.676;26.348;2024-01-15T06:19:05;22.53;;;12.83;;
34565;SDS011;20803;42.676;26.348;2024-01-15T06:21:30;28.83;;;16.17;;
34565;SDS011;20803;42.676;26.348;2024-01-15T06:23:56;27.53;;;15.53;;
34565;SDS011;20803;42.676;26.348;2024-01-15T06:26:24;27.63;;;15.80;;
34565;SDS011;20803;42.676;26.348;2024-01-15T06:28:50;23.03;;;13.37;;
34565;SDS011;20803;42.676;26.348;2024-01-15T06:31:15;23.17;;;14.20;;
34565;SDS011;20803;42.676;26.348;2024-01-15T06:33:41;24.50;;;14.57;;
34565;SDS011;20803;42.676;26.348;2024-01-15T06:36:07;23.90;;;14.67;;
34565;SDS011;20803;42.676;26.348;2024-01-15T06:38:32;22.07;;;13.50;;
34565;SDS011;20803;42.676;26.348;2024-01-15T06:40:58;24.03;;;15.57;;
34565;SDS011;20803;42.676;26.348;2024-01-15T06:43:23;27.30;;;15.57;;
34565;SDS011;20803;42.676;26.348;2024-01-15T06:45:49;28.43;;;16.23;;
34565;SDS011;20803;42.676;26.348;2024-01-15T06:48:14;31.27;;;17.43;;
34565;SDS011;20803;42.676;26.348;2024-01-15T06:50:41;31.17;;;18.00;;
34565;SDS011;20803;42.676;26.348;2024-01-15T06:53:08;35.30;;;20.37;;
34565;SDS011;20803;42.676;26.348;2024-01-15T06:55:33;31.17;;;19.60;;
34565;SDS011;20803;42.676;26.348;2024-01-15T06:57:59;29.47;;;17.83;;
34565;SDS011;20803;42.676;26.348;2024-01-15T07:00:25;36.00;;;18.60;;
34565;SDS011;20803;42.676;26.348;2024-01-15T07:02:52;24.97;;;15.87;;
34565;SDS011;20803;42.676;26.348;2024-01-15T07:05:18;27.37;;;16.70;;
34565;SDS011;20803;42.676;26.348;2024-01-15T07:07:45;33.20;;;20.23;;
34565;SDS011;20803;42.676;26.348;2024-01-15T07:10:11;30.50;;;18.27;;
34565;SDS011;20803;42.676;26.348;2024-01-15T07:12:36;31.50;;;19.47;;
34565;SDS011;20803;42.676;26.348;2024-01-15T07:15:02;29.83;;;19.23;;
34565;SDS011;20803;42.676;26.348;2024-01-15T07:17:29;37.60;;;19.50;;
34565;SDS011;20803;42.676;26.348;2024-01-15T07:19:56;32.67;;;18.83;;
34565;SDS011;20803;42.676;26.348;2024-01-15T07:22:21;29.53;;;18.57;;
34565;SDS011;20803;42.676;26.348;2024-01-15T07:24:47;29.90;;;19.60;;
34565;SDS011;20803;42.676;26.348;2024-01-15T07:27:12;29.43;;;17.70;;
34565;SDS011;20803;42.676;26.348;2024-01-15T07:29:38;27.63;;;18.33;;
34565;SDS011;20803;42.676;26.348;2024-01-15T07:32:03;26.53;;;18.57;;
34565;SDS011;20803;42.676;26.348;2024-01-15T07:34:30;27.40;;;18.10;;
34565;SDS011;20803;42.676;26.348;2024-01-15T07:36:56;24.97;;;16.37;;
34565;SDS011;20803;42.676;26.348;2024-01-15T07:39:22;21.83;;;14.50;;
34565;SDS011;20803;42.676;26.348;2024-01-15T07:41:49;26.47;;;14.83;;
34565;SDS011;20803;42.676;26.348;2024-01-15T07:44:15;18.83;;;13.83;;
34565;SDS011;20803;42.676;26.348;2024-01-15T07:46:45;18.57;;;13.07;;
34565;SDS011;20803;42.676;26.348;2024-01-15T07:49:11;15.60;;;11.03;;
34565;SDS011;20803;42.676;26.348;2024-01-15T07:51:37;19.13;;;12.17;;
34565;SDS011;20803;42.676;26.348;2024-01-15T07:54:02;16.37;;;10.80;;
34565;SDS011;20803;42.676;26.348;2024-01-15T07:56:28;16.53;;;10.57;;
34565;SDS011;20803;42.676;26.348;2024-01-15T07:58:54;17.47;;;11.40;;
34565;SDS011;20803;42.676;26.348;2024-01-15T08:01:19;15.20;;;11.10;;
34565;SDS011;20803;42.676;26.348;2024-01-15T08:03:45;14.73;;;10.40;;
34565;SDS011;20803;42.676;26.348;2024-01-15T08:06:10;15.67;;;9.80;;
34565;SDS011;20803;42.676;26.348;2024-01-15T08:08:36;14.27;;;9.63;;
34565;SDS011;20803;42.676;26.348;2024-01-15T08:11:02;15.60;;;10.60;;
34565;SDS011;20803;42.676;26.348;2024-01-15T08:13:28;19.50;;;12.33;;
34565;SDS011;20803;42.676;26.348;2024-01-15T08:15:54;29.40;;;15.33;;
34565;SDS011;20803;42.676;26.348;2024-01-15T08:18:19;32.77;;;18.17;;
34565;SDS011;20803;42.676;26.348;2024-01-15T08:20:46;28.87;;;18.60;;
34565;SDS011;20803;42.676;26.348;2024-01-15T08:23:12;31.93;;;18.60;;
34565;SDS011;20803;42.676;26.348;2024-01-15T08:25:38;30.10;;;17.20;;
34565;SDS011;20803;42.676;26.348;2024-01-15T08:28:04;32.60;;;19.10;;
34565;SDS011;20803;42.676;26.348;2024-01-15T08:30:30;28.53;;;18.17;;
34565;SDS011;20803;42.676;26.348;2024-01-15T08:32:56;31.70;;;20.83;;
34565;SDS011;20803;42.676;26.348;2024-01-15T08:35:22;32.23;;;21.93;;
34565;SDS011;20803;42.676;26.348;2024-01-15T08:37:48;39.00;;;23.30;;
34565;SDS011;20803;42.676;26.348;2024-01-15T08:40:15;37.70;;;23.47;;
34565;SDS011;20803;42.676;26.348;2024-01-15T08:42:42;44.20;;;25.17;;
34565;SDS011;20803;42.676;26.348;2024-01-15T08:45:08;41.93;;;26.77;;
34565;SDS011;20803;42.676;26.348;2024-01-15T08:47:34;49.50;;;28.70;;
34565;SDS011;20803;42.676;26.348;2024-01-15T08:50:00;48.17;;;30.70;;
34565;SDS011;20803;42.676;26.348;2024-01-15T08:52:26;51.50;;;31.30;;
34565;SDS011;20803;42.676;26.348;2024-01-15T08:54:52;53.57;;;34.13;;
34565;SDS011;20803;42.676;26.348;2024-01-15T08:57:17;48.43;;;30.03;;
34565;SDS011;20803;42.676;26.348;2024-01-15T08:59:43;59.67;;;30.83;;
34565;SDS011;20803;42.676;26.348;2024-01-15T09:02:08;44.93;;;27.67;;
34565;SDS011;20803;42.676;26.348;2024-01-15T09:04:34;42.97;;;26.03;;
34565;SDS011;20803;42.676;26.348;2024-01-15T09:06:59;41.03;;;25.27;;
34565;SDS011;20803;42.676;26.348;2024-01-15T09:09:25;36.67;;;23.70;;
34565;SDS011;20803;42.676;26.348;2024-01-15T09:11:51;32.27;;;22.10;;
34565;SDS011;20803;42.676;26.348;2024-01-15T09:14:16;40.23;;;24.87;;
34565;SDS011;20803;42.676;26.348;2024-01-15T09:16:42;40.47;;;22.67;;
34565;SDS011;20803;42.676;26.348;2024-01-15T09:19:08;46.10;;;25.63;;
34565;SDS011;20803;42.676;26.348;2024-01-15T09:21:34;51.90;;;29.03;;
34565;SDS011;20803;42.676;26.348;2024-01-15T09:23:59;46.20;;;28.63;;
34565;SDS011;20803;42.676;26.348;2024-01-15T09:26:25;46.27;;;26.73;;
34565;SDS011;20803;42.676;26.348;2024-01-15T09:28:51;51.60;;;25.40;;
34565;SDS011;20803;42.676;26.348;2024-01-15T09:31:17;35.77;;;23.57;;
34565;SDS011;20803;42.676;26.348;2024-01-15T09:33:42;40.37;;;21.77;;
34565;SDS011;20803;42.676;26.348;2024-01-15T09:36:09;31.37;;;20.37;;
34565;SDS011;20803;42.676;26.348;2024-01-15T09:38:34;36.93;;;21.97;;
34565;SDS011;20803;42.676;26.348;2024-01-15T09:41:00;37.17;;;22.07;;
34565;SDS011;20803;42.676;26.348;2024-01-15T09:43:26;26.47;;;19.17;;
34565;SDS011;20803;42.676;26.348;2024-01-15T09:45:51;31.07;;;20.13;;
34565;SDS011;20803;42.676;26.348;2024-01-15T09:48:18;31.53;;;19.93;;
34565;SDS011;20803;42.676;26.348;2024-01-15T09:50:44;29.50;;;20.37;;
34565;SDS011;20803;42.676;26.348;2024-01-15T09:53:10;35.27;;;21.50;;
34565;SDS011;20803;42.676;26.348;2024-01-15T09:55:40;30.33;;;20.90;;
34565;SDS011;20803;42.676;26.348;2024-01-15T09:58:06;30.00;;;20.33;;
34565;SDS011;20803;42.676;26.348;2024-01-15T10:00:32;31.10;;;21.17;;
34565;SDS011;20803;42.676;26.348;2024-01-15T10:03:01;27.83;;;19.77;;
34565;SDS011;20803;42.676;26.348;2024-01-15T10:05:28;41.27;;;22.33;;
34565;SDS011;20803;42.676;26.348;2024-01-15T10:07:54;25.97;;;14.73;;
34565;SDS011;20803;42.676;26.348;2024-01-15T10:10:22;24.30;;;15.97;;
34565;SDS011;20803;42.676;26.348;2024-01-15T10:12:49;24.77;;;14.83;;
34565;SDS011;20803;42.676;26.348;2024-01-15T10:15:15;19.03;;;12.63;;
34565;SDS011;20803;42.676;26.348;2024-01-15T10:17:41;20.47;;;12.97;;
34565;SDS011;20803;42.676;26.348;2024-01-15T10:20:10;20.00;;;13.40;;
34565;SDS011;20803;42.676;26.348;2024-01-15T10:22:39;22.00;;;14.30;;
34565;SDS011;20803;42.676;26.348;2024-01-15T10:25:09;19.23;;;12.90;;
34565;SDS011;20803;42.676;26.348;2024-01-15T10:27:35;22.13;;;14.97;;
34565;SDS011;20803;42.676;26.348;2024-01-15T10:30:01;25.63;;;15.87;;
34565;SDS011;20803;42.676;26.348;2024-01-15T10:32:28;23.93;;;15.43;;
34565;SDS011;20803;42.676;26.348;2024-01-15T10:34:54;22.53;;;13.43;;
34565;SDS011;20803;42.676;26.348;2024-01-15T10:37:20;24.10;;;13.90;;
34565;SDS011;20803;42.676;26.348;2024-01-15T10:39:48;25.30;;;15.47;;
34565;SDS011;20803;42.676;26.348;2024-01-15T10:42:14;24.93;;;14.87;;
34565;SDS011;20803;42.676;26.348;2024-01-15T10:44:41;20.70;;;13.90;;
34565;SDS011;20803;42.676;26.348;2024-01-15T10:47:08;20.37;;;13.30;;
34565;SDS011;20803;42.676;26.348;2024-01-15T10:49:34;27.93;;;14.30;;
34565;SDS011;20803;42.676;26.348;2024-01-15T10:52:03;19.63;;;13.73;;
34565;SDS011;20803;42.676;26.348;2024-01-15T10:54:29;23.33;;;14.70;;
34565;SDS011;20803;42.676;26.348;2024-01-15T10:56:55;29.17;;;16.53;;
34565;SDS011;20803;42.676;26.348;2024-01-15T10:59:21;19.93;;;12.43;;
34565;SDS011;20803;42.676;26.348;2024-01-15T11:01:48;17.77;;;12.30;;
34565;SDS011;20803;42.676;26.348;2024-01-15T11:04:14;18.50;;;13.17;;
34565;SDS011;20803;42.676;26.348;2024-01-15T11:06:45;20.57;;;12.63;;
34565;SDS011;20803;42.676;26.348;2024-01-15T11:09:14;22.93;;;12.97;;
34565;SDS011;20803;42.676;26.348;2024-01-15T11:11:44;20.53;;;13.33;;
34565;SDS011;20803;42.676;26.348;2024-01-15T11:14:33;22.70;;;13.73;;
34565;SDS011;20803;42.676;26.348;2024-01-15T11:17:00;29.90;;;15.83;;
34565;SDS011;20803;42.676;26.348;2024-01-15T11:19:28;23.67;;;14.00;;
34565;SDS011;20803;42.676;26.348;2024-01-15T11:25:41;30.60;;;18.53;;
34565;SDS011;20803;42.676;26.348;2024-01-15T11:27:49;22.77;;;14.53;;
34565;SDS011;20803;42.676;26.348;2024-01-15T11:30:16;23.90;;;14.97;;
34565;SDS011;20803;42.676;26.348;2024-01-15T11:32:42;24.10;;;15.97;;
34565;SDS011;20803;42.676;26.348;2024-01-15T11:35:11;22.33;;;15.43;;
34565;SDS011;20803;42.676;26.348;2024-01-15T11:42:57;19.70;;;13.73;;
34565;SDS011;20803;42.676;26.348;2024-01-15T11:45:23;23.80;;;14.47;;
34565;SDS011;20803;42.676;26.348;2024-01-15T11:50:43;20.70;;;14.40;;
34565;SDS011;20803;42.676;26.348;2024-01-15T11:53:15;25.37;;;14.77;;
34565;SDS011;20803;42.676;26.348;2024-01-15T11:55:41;24.03;;;15.27;;
34565;SDS011;20803;42.676;26.348;2024-01-15T11:58:14;24.63;;;14.23;;
34565;SDS011;20803;42.676;26.348;2024-01-15T12:00:42;24.23;;;15.30;;
34565;SDS011;20803;42.676;26.348;2024-01-15T12:03:09;25.70;;;16.17;;
34565;SDS011;20803;42.676;26.348;2024-01-15T12:05:36;23.43;;;16.63;;
34565;SDS011;20803;42.676;26.348;2024-01-15T12:08:07;25.33;;;15.87;;
34565;SDS011;20803;42.676;26.348;2024-01-15T12:10:35;22.20;;;16.23;;
34565;SDS011;20803;42.676;26.348;2024-01-15T12:13:20;23.77;;;17.03;;
34565;SDS011;20803;42.676;26.348;2024-01-15T12:15:46;26.67;;;16.53;;
34565;SDS011;20803;42.676;26.348;2024-01-15T12:18:13;23.83;;;16.87;;
34565;SDS011;20803;42.676;26.348;2024-01-15T12:20:43;24.23;;;16.70;;
34565;SDS011;20803;42.676;26.348;2024-01-15T12:23:12;25.27;;;15.33;;
34565;SDS011;20803;42.676;26.348;2024-01-15T12:25:38;24.60;;;15.70;;
34565;SDS011;20803;42.676;26.348;2024-01-15T12:28:04;20.63;;;14.80;;
34565;SDS011;20803;42.676;26.348;2024-01-15T12:30:30;20.13;;;14.70;;
34565;SDS011;20803;42.676;26.348;2024-01-15T12:33:02;20.67;;;14.23;;
34565;SDS011;20803;42.676;26.348;2024-01-15T12:35:31;21.87;;;16.00;;
34565;SDS011;20803;42.676;26.348;2024-01-15T12:38:01;23.00;;;17.40;;
34565;SDS011;20803;42.676;26.348;2024-01-15T12:40:27;28.47;;;21.60;;
34565;SDS011;20803;42.676;26.348;2024-01-15T12:42:53;33.30;;;21.27;;
34565;SDS011;20803;42.676;26.348;2024-01-15T12:45:18;29.67;;;21.83;;
34565;SDS011;20803;42.676;26.348;2024-01-15T12:47:44;29.67;;;19.70;;
34565;SDS011;20803;42.676;26.348;2024-01-15T12:50:11;25.90;;;17.93;;
34565;SDS011;20803;42.676;26.348;2024-01-15T12:52:39;24.77;;;16.30;;
34565;SDS011;20803;42.676;26.348;2024-01-15T12:55:06;21.80;;;15.57;;
34565;SDS011;20803;42.676;26.348;2024-01-15T12:57:34;21.00;;;16.03;;
34565;SDS011;20803;42.676;26.348;2024-01-15T13:00:00;22.13;;;16.27;;
34565;SDS011;20803;42.676;26.348;2024-01-15T13:02:26;17.73;;;14.30;;
34565;SDS011;20803;42.676;26.348;2024-01-15T13:04:51;21.70;;;16.47;;
34565;SDS011;20803;42.676;26.348;2024-01-15T13:07:19;20.83;;;16.30;;
34565;SDS011;20803;42.676;26.348;2024-01-15T13:09:44;22.83;;;16.13;;
34565;SDS011;20803;42.676;26.348;2024-01-15T13:12:10;21.97;;;15.73;;
34565;SDS011;20803;42.676;26.348;2024-01-15T13:14:37;21.00;;;15.97;;
34565;SDS011;20803;42.676;26.348;2024-01-15T13:17:02;24.13;;;16.90;;
34565;SDS011;20803;42.676;26.348;2024-01-15T13:19:28;24.47;;;16.10;;
34565;SDS011;20803;42.676;26.348;2024-01-15T13:21:54;26.20;;;17.70;;
34565;SDS011;20803;42.676;26.348;2024-01-15T13:24:21;23.97;;;16.80;;
34565;SDS011;20803;42.676;26.348;2024-01-15T13:26:47;21.73;;;15.43;;
34565;SDS011;20803;42.676;26.348;2024-01-15T13:29:13;19.60;;;12.73;;
34565;SDS011;20803;42.676;26.348;2024-01-15T13:31:39;18.90;;;13.30;;
34565;SDS011;20803;42.676;26.348;2024-01-15T13:34:05;34.20;;;18.93;;
34565;SDS011;20803;42.676;26.348;2024-01-15T13:36:32;24.60;;;15.77;;
34565;SDS011;20803;42.676;26.348;2024-01-15T13:38:57;15.40;;;11.67;;
34565;SDS011;20803;42.676;26.348;2024-01-15T13:41:24;18.20;;;11.20;;
34565;SDS011;20803;42.676;26.348;2024-01-15T13:43:52;18.63;;;13.73;;
34565;SDS011;20803;42.676;26.348;2024-01-15T13:46:19;25.80;;;15.53;;
34565;SDS011;20803;42.676;26.348;2024-01-15T13:48:45;19.00;;;13.53;;
34565;SDS011;20803;42.676;26.348;2024-01-15T13:51:11;26.17;;;15.33;;
34565;SDS011;20803;42.676;26.348;2024-01-15T13:53:40;20.50;;;15.27;;
34565;SDS011;20803;42.676;26.348;2024-01-15T13:56:06;19.93;;;15.00;;
34565;SDS011;20803;42.676;26.348;2024-01-15T13:58:32;19.30;;;12.50;;
34565;SDS011;20803;42.676;26.348;2024-01-15T14:00:58;13.17;;;9.73;;
34565;SDS011;20803;42.676;26.348;2024-01-15T14:03:24;15.13;;;10.33;;
34565;SDS011;20803;42.676;26.348;2024-01-15T14:05:53;13.97;;;10.00;;
34565;SDS011;20803;42.676;26.348;2024-01-15T14:08:19;14.50;;;10.00;;
34565;SDS011;20803;42.676;26.348;2024-01-15T14:10:44;15.40;;;10.53;;
34565;SDS011;20803;42.676;26.348;2024-01-15T14:13:10;15.70;;;10.70;;
34565;SDS011;20803;42.676;26.348;2024-01-15T14:15:35;18.77;;;11.60;;
34565;SDS011;20803;42.676;26.348;2024-01-15T14:18:01;18.17;;;12.23;;